createdAt,value
2019-03-15T00:00:42.147Z,11.80
2019-03-15T00:03:13.712Z,7.50
2019-03-15T00:05:45.288Z,8.13
2019-03-15T00:08:17.907Z,14.23
2019-03-15T00:10:49.552Z,13.40
2019-03-15T00:13:21.081Z,8.73
2019-03-15T00:15:52.649Z,12.40
2019-03-15T00:18:24.233Z,14.93
2019-03-15T00:20:55.813Z,10.30
2019-03-15T00:23:27.338Z,11.70
2019-03-15T00:25:58.976Z,15.57
2019-03-15T00:28:30.518Z,9.33
2019-03-15T00:31:02.130Z,8.60
2019-03-15T00:33:34.746Z,6.53
2019-03-15T00:36:06.526Z,7.30
2019-03-15T00:38:38.078Z,6.97
2019-03-15T00:41:09.645Z,5.53
2019-03-15T00:43:41.203Z,7.00
2019-03-15T00:46:12.795Z,10.30
2019-03-15T00:48:44.358Z,8.80
2019-03-15T00:51:15.921Z,7.70
2019-03-15T00:53:47.487Z,8.50
2019-03-15T00:56:19.031Z,6.07
2019-03-15T00:58:50.633Z,5.50
2019-03-15T01:01:22.181Z,8.10
2019-03-15T01:03:53.751Z,9.20
2019-03-15T01:06:25.316Z,8.67
2019-03-15T01:08:57.970Z,9.57
2019-03-15T01:11:29.512Z,8.33
2019-03-15T01:14:01.058Z,5.47
2019-03-15T01:16:34.693Z,5.90
2019-03-15T01:19:06.343Z,5.37
2019-03-15T01:21:37.990Z,7.47
2019-03-15T01:24:09.571Z,6.10
2019-03-15T01:26:41.097Z,6.90
2019-03-15T01:29:12.706Z,4.53
2019-03-15T01:31:44.259Z,4.60
2019-03-15T01:34:17.020Z,4.60
2019-03-15T01:36:48.582Z,4.87
2019-03-15T01:39:20.165Z,7.93
2019-03-15T01:41:51.703Z,5.67
2019-03-15T01:44:23.257Z,6.90
2019-03-15T01:46:54.791Z,7.90
2019-03-15T01:49:26.355Z,8.73
2019-03-15T01:51:58.002Z,5.70
2019-03-15T01:54:29.562Z,7.87
2019-03-15T01:57:01.136Z,10.27
2019-03-15T01:59:32.687Z,9.70
2019-03-15T02:02:04.252Z,4.60
2019-03-15T02:04:35.887Z,7.43
2019-03-15T02:07:07.450Z,9.07
2019-03-15T02:09:39.073Z,5.07
2019-03-15T02:12:10.655Z,7.27
2019-03-15T02:14:42.285Z,4.63
2019-03-15T02:17:14.004Z,6.70
2019-03-15T02:19:45.632Z,5.57
2019-03-15T02:22:17.169Z,4.10
2019-03-15T02:24:48.741Z,7.23
2019-03-15T02:27:20.283Z,7.40
2019-03-15T02:29:51.871Z,6.87
2019-03-15T02:32:23.470Z,12.00
2019-03-15T02:34:55.017Z,7.77
2019-03-15T02:37:26.575Z,5.93
2019-03-15T02:39:58.112Z,12.47
2019-03-15T02:42:29.671Z,6.10
2019-03-15T02:45:01.227Z,4.73
2019-03-15T02:47:32.791Z,5.03
2019-03-15T02:50:04.573Z,8.27
2019-03-15T02:52:37.230Z,9.20
2019-03-15T02:55:09.869Z,5.47
2019-03-15T02:57:41.419Z,5.90
2019-03-15T03:00:15.902Z,6.00
2019-03-15T03:02:49.198Z,6.60
2019-03-15T03:05:22.223Z,7.60
2019-03-15T03:07:53.766Z,9.00
2019-03-15T03:10:25.327Z,9.77
2019-03-15T03:12:56.913Z,10.87
2019-03-15T03:15:28.457Z,6.90
2019-03-15T03:18:04.319Z,10.70
2019-03-15T03:20:41.770Z,7.77
2019-03-15T03:23:13.304Z,7.23
2019-03-15T03:25:46.369Z,7.13
2019-03-15T03:28:20.918Z,4.83
2019-03-15T03:30:54.992Z,7.80
2019-03-15T03:33:27.540Z,8.77
2019-03-15T03:35:59.151Z,10.50
2019-03-15T03:38:30.681Z,6.90
2019-03-15T03:41:02.225Z,12.10
2019-03-15T03:43:33.778Z,8.10
2019-03-15T03:46:05.314Z,8.97
2019-03-15T03:48:36.855Z,6.67
2019-03-15T03:51:08.731Z,6.97
2019-03-15T03:53:40.434Z,12.23
2019-03-15T03:56:12.021Z,7.13
2019-03-15T03:58:43.580Z,9.57
2019-03-15T04:01:15.105Z,10.13
2019-03-15T04:03:46.682Z,7.93
2019-03-15T04:06:18.203Z,11.70
2019-03-15T04:08:49.848Z,7.20
2019-03-15T04:11:23.017Z,7.83
2019-03-15T04:13:57.613Z,9.23
2019-03-15T04:16:29.269Z,9.37
2019-03-15T04:19:00.794Z,8.70
2019-03-15T04:21:32.348Z,6.67
2019-03-15T04:24:03.877Z,8.00
2019-03-15T04:26:36.505Z,8.50
2019-03-15T04:29:08.037Z,7.07
2019-03-15T04:31:39.579Z,8.20
2019-03-15T04:34:11.141Z,9.50
2019-03-15T04:36:43.743Z,8.10
2019-03-15T04:39:16.656Z,7.17
2019-03-15T04:41:48.196Z,7.27
2019-03-15T04:44:19.733Z,7.53
2019-03-15T04:46:51.278Z,8.40
2019-03-15T04:49:22.814Z,7.40
2019-03-15T04:51:54.378Z,5.63
2019-03-15T04:54:25.933Z,10.37
2019-03-15T04:56:57.476Z,6.33
2019-03-15T04:59:29.021Z,7.70
2019-03-15T05:02:00.549Z,9.90
2019-03-15T05:04:32.103Z,6.00
2019-03-15T05:07:03.688Z,8.30
2019-03-15T05:09:35.264Z,8.33
2019-03-15T05:12:06.824Z,6.30
2019-03-15T05:14:38.402Z,7.57
2019-03-15T05:17:09.935Z,9.63
2019-03-15T05:19:41.472Z,8.17
2019-03-15T05:22:13.048Z,10.30
2019-03-15T05:24:44.605Z,5.83
2019-03-15T05:27:16.171Z,7.80
2019-03-15T05:29:47.715Z,7.83
2019-03-15T05:32:19.275Z,13.40
2019-03-15T05:34:50.832Z,6.70
2019-03-15T05:37:22.365Z,5.30
2019-03-15T05:39:55.979Z,5.90
2019-03-15T05:42:27.504Z,8.87
2019-03-15T05:44:59.070Z,5.37
2019-03-15T05:47:30.588Z,6.07
2019-03-15T05:50:02.130Z,6.90
2019-03-15T05:52:33.678Z,8.73
2019-03-15T05:55:05.972Z,13.33
2019-03-15T05:57:37.537Z,10.23
2019-03-15T06:00:11.670Z,5.37
2019-03-15T06:02:43.309Z,10.03
2019-03-15T06:05:14.945Z,9.90
2019-03-15T06:07:46.507Z,6.10
2019-03-15T06:10:25.485Z,7.40
2019-03-15T06:12:59.364Z,9.70
2019-03-15T06:15:30.915Z,8.23
2019-03-15T06:18:02.446Z,9.50
2019-03-15T06:20:33.999Z,7.43
2019-03-15T06:23:05.552Z,7.80
2019-03-15T06:25:37.125Z,12.10
2019-03-15T06:28:08.669Z,10.00
2019-03-15T06:30:40.240Z,8.33
2019-03-15T06:33:12.857Z,9.70
2019-03-15T06:35:44.454Z,11.27
2019-03-15T06:38:16.007Z,7.53
2019-03-15T06:40:47.568Z,11.73
2019-03-15T06:43:19.123Z,10.27
2019-03-15T06:45:50.706Z,8.57
2019-03-15T06:48:22.246Z,8.13
2019-03-15T06:50:53.778Z,8.37
2019-03-15T06:53:25.334Z,10.93
2019-03-15T06:55:56.898Z,7.40
2019-03-15T06:58:36.285Z,6.93
2019-03-15T07:01:07.838Z,8.17
2019-03-15T07:03:39.398Z,8.40
2019-03-15T07:06:12.652Z,7.70
2019-03-15T07:08:45.494Z,5.57
2019-03-15T07:11:18.618Z,8.33
2019-03-15T07:13:50.186Z,4.37
2019-03-15T07:16:25.564Z,3.80
2019-03-15T07:18:57.103Z,5.20
2019-03-15T07:21:30.386Z,5.13
2019-03-15T07:24:04.539Z,7.03
2019-03-15T07:26:43.615Z,8.27
2019-03-15T07:29:19.070Z,4.33
2019-03-15T07:31:55.070Z,10.60
2019-03-15T07:34:26.634Z,11.60
2019-03-15T07:36:59.066Z,16.40
2019-03-15T07:39:34.798Z,10.23
2019-03-15T07:42:07.028Z,11.53
2019-03-15T07:44:39.990Z,8.83
2019-03-15T07:47:16.200Z,8.70
2019-03-15T07:49:48.093Z,17.93
2019-03-15T07:52:19.648Z,14.00
2019-03-15T07:54:51.263Z,8.30
2019-03-15T07:57:23.935Z,9.10
2019-03-15T07:59:55.651Z,9.33
2019-03-15T08:02:27.206Z,9.30
2019-03-15T08:04:58.751Z,7.67
2019-03-15T08:07:37.824Z,10.00
2019-03-15T08:10:06.203Z,6.13
2019-03-15T08:12:38.892Z,4.10
2019-03-15T08:15:11.830Z,4.53
2019-03-15T08:17:43.428Z,4.43
2019-03-15T08:20:18.641Z,4.70
2019-03-15T08:22:51.574Z,5.73
2019-03-15T08:25:25.051Z,3.30
2019-03-15T08:28:00.023Z,3.03
2019-03-15T08:30:36.495Z,3.23
2019-03-15T08:33:10.438Z,4.10
2019-03-15T08:35:49.854Z,3.83
2019-03-15T08:38:22.602Z,1.93
2019-03-15T08:40:54.156Z,3.57
2019-03-15T08:43:25.696Z,3.80
2019-03-15T08:45:57.286Z,2.70
2019-03-15T08:48:31.805Z,4.13
2019-03-15T08:51:02.135Z,3.20
2019-03-15T08:53:36.024Z,2.13
2019-03-15T08:56:09.559Z,2.87
2019-03-15T08:58:41.102Z,4.07
2019-03-15T09:01:12.651Z,3.03
2019-03-15T09:03:44.229Z,3.87
2019-03-15T09:06:15.850Z,3.37
2019-03-15T09:08:47.438Z,2.20
2019-03-15T09:11:19.115Z,3.23
2019-03-15T09:13:52.029Z,3.07
2019-03-15T09:16:23.649Z,2.37
2019-03-15T09:18:57.698Z,3.20
2019-03-15T09:21:32.418Z,2.83
2019-03-15T09:24:09.309Z,2.07
2019-03-15T09:26:40.885Z,3.63
2019-03-15T09:29:15.231Z,4.20
2019-03-15T09:31:48.323Z,2.43
2019-03-15T09:34:23.486Z,2.63
2019-03-15T09:36:59.470Z,3.50
2019-03-15T09:39:32.148Z,2.73
2019-03-15T09:42:06.516Z,3.13
2019-03-15T09:44:40.466Z,5.87
2019-03-15T09:47:14.135Z,3.53
2019-03-15T09:49:48.498Z,3.30
2019-03-15T09:52:20.038Z,3.37
2019-03-15T09:54:51.616Z,2.80
2019-03-15T09:57:24.290Z,5.37
2019-03-15T09:59:59.147Z,4.33
2019-03-15T10:02:32.483Z,3.33
2019-03-15T10:05:10.574Z,3.00
2019-03-15T10:07:40.293Z,4.10
2019-03-15T10:10:18.980Z,5.27
2019-03-15T10:13:05.827Z,5.60
2019-03-15T10:15:30.051Z,4.87
2019-03-15T10:18:07.331Z,4.47
2019-03-15T10:20:45.363Z,3.63
2019-03-15T10:23:23.586Z,3.87
2019-03-15T10:26:01.979Z,6.20
2019-03-15T10:28:34.736Z,3.97
2019-03-15T10:31:06.425Z,5.53
2019-03-15T10:33:49.738Z,5.43
2019-03-15T10:36:11.271Z,4.33
2019-03-15T10:38:42.817Z,6.30
2019-03-15T10:41:14.384Z,3.50
2019-03-15T10:43:50.307Z,13.83
2019-03-15T10:46:23.065Z,4.20
2019-03-15T10:48:54.647Z,7.43
2019-03-15T10:51:26.237Z,8.47
2019-03-15T10:53:59.269Z,4.47
2019-03-15T10:56:31.004Z,6.93
2019-03-15T10:59:02.506Z,8.27
2019-03-15T11:01:34.102Z,4.80
2019-03-15T11:04:05.660Z,3.67
2019-03-15T11:06:37.268Z,6.03
2019-03-15T11:09:09.380Z,4.67
2019-03-15T11:11:40.989Z,5.50
2019-03-15T11:14:12.556Z,8.97
2019-03-15T11:16:44.146Z,4.10
2019-03-15T11:19:15.879Z,4.27
2019-03-15T11:21:47.502Z,5.10
2019-03-15T11:24:19.093Z,4.80
2019-03-15T11:26:50.683Z,6.70
2019-03-15T11:29:22.315Z,6.70
2019-03-15T11:31:53.947Z,3.43
2019-03-15T11:34:25.544Z,5.00
2019-03-15T11:36:58.578Z,4.60
2019-03-15T11:39:30.390Z,2.00
2019-03-15T11:42:01.992Z,2.33
2019-03-15T11:44:33.556Z,1.50
2019-03-15T11:47:05.262Z,2.33
2019-03-15T11:49:37.881Z,1.97
2019-03-15T11:52:09.449Z,1.57
2019-03-15T11:54:41.036Z,1.77
2019-03-15T11:57:12.626Z,3.53
2019-03-15T11:59:44.230Z,1.10
2019-03-15T12:02:15.838Z,1.10
2019-03-15T12:04:47.427Z,1.60
2019-03-15T12:07:19.025Z,1.27
2019-03-15T12:09:50.583Z,1.10
2019-03-15T12:12:22.172Z,1.50
2019-03-15T12:14:53.735Z,1.37
2019-03-15T12:17:25.384Z,1.07
2019-03-15T12:19:56.915Z,1.90
2019-03-15T12:22:29.658Z,2.60
2019-03-15T12:25:01.221Z,1.70
2019-03-15T12:27:32.810Z,2.10
2019-03-15T12:30:04.782Z,2.40
2019-03-15T12:32:36.353Z,1.40
2019-03-15T12:35:10.194Z,1.60
2019-03-15T12:37:41.810Z,1.80
2019-03-15T12:40:14.610Z,2.50
2019-03-15T12:42:46.217Z,2.07
2019-03-15T12:45:17.964Z,1.33
2019-03-15T12:47:49.548Z,1.93
2019-03-15T12:50:21.157Z,1.50
2019-03-15T12:52:52.809Z,1.70
2019-03-15T12:55:24.417Z,1.90
2019-03-15T12:57:56.025Z,1.53
2019-03-15T13:00:27.645Z,1.70
2019-03-15T13:02:59.215Z,1.57
2019-03-15T13:05:30.798Z,1.50
2019-03-15T13:08:02.353Z,1.33
2019-03-15T13:10:33.939Z,1.70
2019-03-15T13:13:05.505Z,1.23
2019-03-15T13:15:37.091Z,1.10
2019-03-15T13:18:08.681Z,3.17
2019-03-15T13:20:40.246Z,1.83
2019-03-15T13:23:11.832Z,2.73
2019-03-15T13:25:43.427Z,1.80
2019-03-15T13:28:14.984Z,2.53
2019-03-15T13:30:46.598Z,2.20
2019-03-15T13:33:20.802Z,1.60
2019-03-15T13:35:51.537Z,1.73
2019-03-15T13:38:23.164Z,1.80
2019-03-15T13:40:54.768Z,1.80
2019-03-15T13:43:26.320Z,1.73
2019-03-15T13:45:57.922Z,2.73
2019-03-15T13:48:29.511Z,3.03
2019-03-15T13:51:01.103Z,3.37
2019-03-15T13:53:32.692Z,2.33
2019-03-15T13:56:04.347Z,1.87
2019-03-15T13:58:37.533Z,2.40
2019-03-15T14:01:09.410Z,2.23
2019-03-15T14:03:41.082Z,3.00
2019-03-15T14:06:12.718Z,2.13
2019-03-15T14:08:44.309Z,1.60
2019-03-15T14:11:15.941Z,2.17
2019-03-15T14:13:47.663Z,1.57
2019-03-15T14:16:20.339Z,2.33
2019-03-15T14:18:53.048Z,1.30
2019-03-15T14:21:24.627Z,1.33
2019-03-15T14:23:57.222Z,1.40
2019-03-15T14:26:28.796Z,3.40
2019-03-15T14:29:00.467Z,1.87
2019-03-15T14:31:32.049Z,1.50
2019-03-15T14:34:03.721Z,1.33
2019-03-15T14:36:35.244Z,1.73
2019-03-15T14:39:09.381Z,2.40
2019-03-15T14:41:41.121Z,2.97
2019-03-15T14:44:14.126Z,2.67
2019-03-15T14:46:47.632Z,2.30
2019-03-15T14:49:20.273Z,1.67
2019-03-15T14:51:51.896Z,1.50
2019-03-15T14:54:23.436Z,1.80
2019-03-15T14:56:55.006Z,2.23
2019-03-15T14:59:26.633Z,1.40
2019-03-15T15:01:58.221Z,3.00
2019-03-15T15:04:29.900Z,1.83
2019-03-15T15:07:01.477Z,1.77
2019-03-15T15:09:33.080Z,2.33
2019-03-15T15:12:04.664Z,1.63
2019-03-15T15:14:36.297Z,1.63
2019-03-15T15:17:07.959Z,2.20
2019-03-15T15:19:39.550Z,1.57
2019-03-15T15:22:11.121Z,1.73
2019-03-15T15:24:43.817Z,1.20
2019-03-15T15:27:15.419Z,1.10
2019-03-15T15:29:46.998Z,1.73
2019-03-15T15:32:18.572Z,1.20
2019-03-15T15:34:51.726Z,1.30
2019-03-15T15:37:23.354Z,1.37
2019-03-15T15:39:54.960Z,1.30
2019-03-15T15:42:26.566Z,1.50
2019-03-15T15:44:58.174Z,1.60
2019-03-15T15:47:29.856Z,1.23
2019-03-15T15:50:01.564Z,1.20
2019-03-15T15:52:34.555Z,2.50
2019-03-15T15:55:06.313Z,1.20
2019-03-15T15:57:37.979Z,1.80
2019-03-15T16:00:12.218Z,4.40
2019-03-15T16:02:43.854Z,1.20
2019-03-15T16:05:15.687Z,1.40
2019-03-15T16:07:47.431Z,1.03
2019-03-15T16:10:20.884Z,1.20
2019-03-15T16:12:52.458Z,1.10
2019-03-15T16:15:24.083Z,1.10
2019-03-15T16:17:55.681Z,1.77
2019-03-15T16:20:27.283Z,1.70
2019-03-15T16:22:58.838Z,1.87
2019-03-15T16:25:30.449Z,1.20
2019-03-15T16:28:03.132Z,1.63
2019-03-15T16:30:34.703Z,2.17
2019-03-15T16:33:06.320Z,1.70
2019-03-15T16:35:37.955Z,1.43
2019-03-15T16:38:09.542Z,1.40
2019-03-15T16:40:41.345Z,1.50
2019-03-15T16:43:13.466Z,1.50
2019-03-15T16:45:45.849Z,1.10
2019-03-15T16:48:17.419Z,1.43
2019-03-15T16:50:51.706Z,1.40
2019-03-15T16:53:22.646Z,2.03
2019-03-15T16:55:55.644Z,1.33
2019-03-15T16:58:27.522Z,1.80
2019-03-15T17:00:59.376Z,1.40
2019-03-15T17:03:31.112Z,2.23
2019-03-15T17:06:02.794Z,2.87
2019-03-15T17:08:35.866Z,2.37
2019-03-15T17:11:07.484Z,1.37
2019-03-15T17:13:39.112Z,1.73
2019-03-15T17:16:10.959Z,1.80
2019-03-15T17:18:42.771Z,1.40
2019-03-15T17:21:14.425Z,1.60
2019-03-15T17:23:46.089Z,2.40
2019-03-15T17:26:19.186Z,3.57
2019-03-15T17:28:58.602Z,2.93
2019-03-15T17:31:24.245Z,2.43
2019-03-15T17:33:55.987Z,2.33
2019-03-15T17:36:27.622Z,1.77
2019-03-15T17:38:59.478Z,2.43
2019-03-15T17:41:31.450Z,1.80
2019-03-15T17:44:03.234Z,1.93
2019-03-15T17:46:34.858Z,1.60
2019-03-15T17:49:06.510Z,1.73
2019-03-15T17:51:38.230Z,1.50
2019-03-15T17:54:09.879Z,2.53
2019-03-15T17:56:41.619Z,2.13
2019-03-15T17:59:13.285Z,2.07
2019-03-15T18:01:44.980Z,1.73
2019-03-15T18:04:16.615Z,1.70
2019-03-15T18:06:48.272Z,2.37
2019-03-15T18:09:19.893Z,2.47
2019-03-15T18:11:51.713Z,4.20
2019-03-15T18:14:23.412Z,10.93
2019-03-15T18:16:55.053Z,1.87
2019-03-15T18:19:26.708Z,4.57
2019-03-15T18:21:58.332Z,5.83
2019-03-15T18:24:30.037Z,3.07
2019-03-15T18:27:01.618Z,1.67
2019-03-15T18:29:33.259Z,5.43
2019-03-15T18:32:06.405Z,1.67
2019-03-15T18:34:38.128Z,1.80
2019-03-15T18:37:09.969Z,2.03
2019-03-15T18:39:41.770Z,1.30
2019-03-15T18:42:13.527Z,1.57
2019-03-15T18:44:45.220Z,2.50
2019-03-15T18:47:17.295Z,1.90
2019-03-15T18:49:50.631Z,1.90
2019-03-15T18:52:22.555Z,1.90
2019-03-15T18:54:54.584Z,1.60
2019-03-15T18:57:27.215Z,1.33
2019-03-15T18:59:59.001Z,1.30
2019-03-15T19:02:30.783Z,1.50
2019-03-15T19:05:02.468Z,1.40
2019-03-15T19:07:34.166Z,1.20
2019-03-15T19:10:06.593Z,2.30
2019-03-15T19:12:38.224Z,1.57
2019-03-15T19:15:11.661Z,1.40
2019-03-15T19:17:43.275Z,1.20
2019-03-15T19:20:15.060Z,1.50
2019-03-15T19:22:46.667Z,1.20
2019-03-15T19:25:18.262Z,1.90
2019-03-15T19:27:49.879Z,2.00
2019-03-15T19:30:21.677Z,1.30
2019-03-15T19:32:53.267Z,2.37
2019-03-15T19:35:24.994Z,1.20
2019-03-15T19:37:56.603Z,3.20
2019-03-15T19:40:28.310Z,1.40
2019-03-15T19:42:59.904Z,1.50
2019-03-15T19:45:31.889Z,1.17
2019-03-15T19:48:03.497Z,1.10
2019-03-15T19:50:35.099Z,1.40
2019-03-15T19:53:07.003Z,1.40
2019-03-15T19:55:38.616Z,1.30
2019-03-15T19:58:10.203Z,1.10
2019-03-15T20:00:41.821Z,1.20
2019-03-15T20:03:13.414Z,1.00
2019-03-15T20:05:45.090Z,1.73
2019-03-15T20:08:16.688Z,1.27
2019-03-15T20:10:48.296Z,1.40
2019-03-15T20:13:19.902Z,1.30
2019-03-15T20:15:52.593Z,1.20
2019-03-15T20:18:24.155Z,3.23
2019-03-15T20:20:55.758Z,1.20
2019-03-15T20:23:27.370Z,1.23
2019-03-15T20:25:58.992Z,1.37
2019-03-15T20:28:30.624Z,1.10
2019-03-15T20:31:02.250Z,1.10
2019-03-15T20:33:33.855Z,1.40
2019-03-15T20:36:05.465Z,1.20
2019-03-15T20:38:37.122Z,1.30
2019-03-15T20:41:08.827Z,1.10
2019-03-15T20:43:40.445Z,1.60
2019-03-15T20:46:15.756Z,1.10
2019-03-15T20:48:46.523Z,2.07
2019-03-15T20:51:18.138Z,1.10
2019-03-15T20:53:49.722Z,1.30
2019-03-15T20:56:21.491Z,1.30
2019-03-15T20:58:53.183Z,1.47
2019-03-15T21:01:24.797Z,1.60
2019-03-15T21:03:56.574Z,1.40
2019-03-15T21:06:28.304Z,1.20
2019-03-15T21:08:59.992Z,1.30
2019-03-15T21:11:33.314Z,1.40
2019-03-15T21:14:05.084Z,2.03
2019-03-15T21:16:36.709Z,1.40
2019-03-15T21:19:08.307Z,1.30
2019-03-15T21:21:39.925Z,1.40
2019-03-15T21:24:11.524Z,1.50
2019-03-15T21:26:43.081Z,1.20
2019-03-15T21:29:14.884Z,1.60
2019-03-15T21:31:46.489Z,1.93
2019-03-15T21:34:19.155Z,1.23
2019-03-15T21:36:51.966Z,1.20
2019-03-15T21:39:23.602Z,2.60
2019-03-15T21:41:55.376Z,1.50
2019-03-15T21:44:27.000Z,1.50
2019-03-15T21:46:58.782Z,1.20
2019-03-15T21:49:30.381Z,1.20
2019-03-15T21:52:02.001Z,1.20
2019-03-15T21:54:33.610Z,1.20
2019-03-15T21:57:05.204Z,1.13
2019-03-15T21:59:39.148Z,1.00
2019-03-15T22:02:10.099Z,1.70
2019-03-15T22:04:41.825Z,1.10
2019-03-15T22:07:13.452Z,1.20
2019-03-15T22:09:45.077Z,1.20
2019-03-15T22:12:16.664Z,1.33
2019-03-15T22:14:48.251Z,1.17
2019-03-15T22:17:19.864Z,1.30
2019-03-15T22:19:51.494Z,1.60
2019-03-15T22:22:23.114Z,3.70
2019-03-15T22:24:54.757Z,1.20
2019-03-15T22:27:26.488Z,1.30
2019-03-15T22:29:58.120Z,3.30
2019-03-15T22:32:29.794Z,1.77
2019-03-15T22:35:01.424Z,1.27
2019-03-15T22:37:33.023Z,1.20
2019-03-15T22:40:04.889Z,1.23
2019-03-15T22:42:36.477Z,1.20
2019-03-15T22:45:08.648Z,1.23
2019-03-15T22:47:40.228Z,1.20
2019-03-15T22:50:12.355Z,1.47
2019-03-15T22:52:45.051Z,1.10
2019-03-15T22:55:16.662Z,1.23
2019-03-15T22:57:59.274Z,1.00
2019-03-15T23:00:23.224Z,1.20
2019-03-15T23:02:56.472Z,1.40
2019-03-15T23:05:28.095Z,1.13
2019-03-15T23:07:59.675Z,1.20
2019-03-15T23:10:31.301Z,1.00
2019-03-15T23:13:02.852Z,1.13
2019-03-15T23:15:34.479Z,1.13
2019-03-15T23:18:06.081Z,1.00
2019-03-15T23:20:38.762Z,1.00
2019-03-15T23:23:22.842Z,1.40
2019-03-15T23:25:43.799Z,1.10
2019-03-15T23:28:15.525Z,1.20
2019-03-15T23:30:47.138Z,1.10
2019-03-15T23:33:18.835Z,1.27
2019-03-15T23:35:54.229Z,1.00
2019-03-15T23:38:23.764Z,1.30
2019-03-15T23:40:55.372Z,1.20
2019-03-15T23:43:26.931Z,1.20
2019-03-15T23:45:58.569Z,1.20
2019-03-15T23:48:30.189Z,1.20
2019-03-15T23:51:01.777Z,1.20
2019-03-15T23:53:33.374Z,1.10
2019-03-15T23:56:04.927Z,1.20
2019-03-15T23:58:36.532Z,1.10
